Time;durP1;ratioP1;P1;durP2;ratioP2;P2;SDS_P1;SDS_P2;PMS_P1;PMS_P2;Temp;Humidity;BMP_temperature;BMP_pressure;BME280_temperature;BME280_humidity;BME280_pressure;Samples;Min_cycle;Max_cycle;Signal;HPM_P1;HPM_P2
2021/04/27 00:00:14;;;;;;;0.60;0.60;;;3.20;95.20;;;;;;5057272;28;20208;-60
2021/04/27 00:02:41;;;;;;;3.33;3.13;;;3.20;95.50;;;;;;5056532;28;20516;-61
2021/04/27 00:05:10;;;;;;;0.55;0.55;;;3.10;95.90;;;;;;5056937;28;20208;-60
2021/04/27 00:07:37;;;;;;;2.05;1.60;;;3.00;96.00;;;;;;5055807;28;20230;-59
2021/04/27 00:10:09;;;;;;;9.48;1.30;;;3.00;95.80;;;;;;5055268;28;20209;-61
2021/04/27 00:12:36;;;;;;;1.02;1.02;;;3.00;95.90;;;;;;5062369;28;20314;-60
2021/04/27 00:15:06;;;;;;;1.20;1.20;;;3.00;95.90;;;;;;5057349;28;20204;-60
2021/04/27 00:17:33;;;;;;;0.82;0.82;;;3.00;96.00;;;;;;5055940;28;20206;-60
2021/04/27 00:20:00;;;;;;;0.88;0.88;;;3.00;96.10;;;;;;5055860;28;20205;-60
2021/04/27 00:22:26;;;;;;;1.15;0.85;;;3.00;96.00;;;;;;5055593;28;20295;-60
2021/04/27 00:24:53;;;;;;;1.10;1.02;;;3.00;96.20;;;;;;5056437;28;20287;-59
2021/04/27 00:27:19;;;;;;;0.40;0.40;;;3.00;96.50;;;;;;5054233;28;20205;-60
2021/04/27 00:29:46;;;;;;;0.40;0.40;;;2.90;96.50;;;;;;5056510;28;20483;-60
2021/04/27 00:32:12;;;;;;;1.38;1.27;;;3.00;96.50;;;;;;5054265;28;20208;-59
2021/04/27 00:34:39;;;;;;;1.38;1.08;;;2.90;96.30;;;;;;5055678;28;20239;-59
2021/04/27 00:37:06;;;;;;;0.70;0.70;;;2.90;96.60;;;;;;5057659;28;20215;-60
2021/04/27 00:39:33;;;;;;;1.77;1.60;;;2.90;96.90;;;;;;5047350;28;20529;-60
2021/04/27 00:41:59;;;;;;;1.40;1.30;;;2.70;96.90;;;;;;5060074;28;20207;-60
2021/04/27 00:44:26;;;;;;;1.35;1.25;;;2.70;97.00;;;;;;5058652;28;20278;-60
2021/04/27 00:46:53;;;;;;;1.15;1.08;;;2.80;96.90;;;;;;5060219;28;20211;-61
2021/04/27 00:49:19;;;;;;;2.78;0.98;;;2.80;97.10;;;;;;5045562;28;20204;-60
2021/04/27 00:51:46;;;;;;;1.27;1.27;;;2.70;97.10;;;;;;5070528;28;20553;-60
2021/04/27 00:54:13;;;;;;;1.75;0.95;;;2.80;97.10;;;;;;5070429;28;20237;-60
2021/04/27 00:56:39;;;;;;;0.95;0.95;;;2.60;97.10;;;;;;5059528;28;20225;-59
2021/04/27 00:59:06;;;;;;;1.65;1.65;;;2.50;97.50;;;;;;5060895;28;20220;-59
2021/04/27 01:01:33;;;;;;;1.70;1.70;;;2.40;97.70;;;;;;5048769;28;20433;-59
2021/04/27 01:04:00;;;;;;;1.90;1.80;;;2.30;98.00;;;;;;5052890;28;20231;-61
2021/04/27 01:06:27;;;;;;;1.42;1.42;;;2.50;97.80;;;;;;5058212;28;20204;-59
2021/04/27 01:09:05;;;;;;;4.78;2.72;;;3.00;98.00;;;;;;5049017;28;20257;-61
2021/04/27 01:12:19;;;;;;;2.03;1.85;;;2.40;97.90;;;;;;5052712;28;20424;-60
2021/04/27 01:15:01;;;;;;;1.05;1.05;;;2.40;97.90;;;;;;5039735;28;20213;-60
2021/04/27 01:17:29;;;;;;;4.75;2.42;;;2.40;98.20;;;;;;5058979;28;20208;-61
2021/04/27 01:20:06;;;;;;;1.23;1.13;;;2.30;98.10;;;;;;5058462;28;20208;-60
2021/04/27 01:22:53;;;;;;;1.40;1.30;;;2.30;98.10;;;;;;5059121;28;20249;-61
2021/04/27 01:25:29;;;;;;;3.17;2.90;;;2.40;98.10;;;;;;5066578;28;20207;-60
2021/04/27 01:27:56;;;;;;;1.30;1.27;;;2.50;98.10;;;;;;5058571;28;20215;-59
2021/04/27 01:30:22;;;;;;;0.90;0.90;;;2.30;98.30;;;;;;5055832;28;20211;-60
2021/04/27 01:32:49;;;;;;;1.27;1.20;;;2.00;98.90;;;;;;5058754;28;20275;-60
2021/04/27 01:35:16;;;;;;;1.25;1.05;;;1.90;99.20;;;;;;5056478;28;20433;-60
2021/04/27 01:37:44;;;;;;;2.05;1.95;;;2.00;99.30;;;;;;5067195;28;20213;-60
2021/04/27 01:40:11;;;;;;;0.85;0.85;;;1.90;99.20;;;;;;5061392;28;20282;-59
2021/04/27 01:42:38;;;;;;;4.60;2.25;;;2.00;99.40;;;;;;5058899;28;20203;-60
2021/04/27 01:45:06;;;;;;;3.17;2.78;;;2.00;99.30;;;;;;5061787;28;20239;-60
2021/04/27 01:47:34;;;;;;;3.47;3.25;;;2.00;99.30;;;;;;5058412;28;20217;-60
2021/04/27 01:50:01;;;;;;;0.90;0.90;;;2.00;99.20;;;;;;5056919;28;20215;-60
2021/04/27 01:52:28;;;;;;;4.97;2.72;;;1.80;99.40;;;;;;5055172;28;20243;-60
2021/04/27 01:54:55;;;;;;;1.10;1.10;;;1.60;99.90;;;;;;5046679;28;20216;-60
2021/04/27 01:57:22;;;;;;;4.13;2.70;;;1.40;99.90;;;;;;5052883;28;20211;-60
2021/04/27 01:59:49;;;;;;;1.67;1.42;;;1.50;99.90;;;;;;5046501;28;20239;-60
2021/04/27 02:02:16;;;;;;;3.40;3.22;;;1.70;99.90;;;;;;5060789;28;20498;-60
2021/04/27 02:04:42;;;;;;;1.52;1.48;;;1.80;99.90;;;;;;5066828;28;20235;-60
2021/04/27 02:07:09;;;;;;;2.10;2.00;;;1.80;99.90;;;;;;5059862;28;20253;-60
2021/04/27 02:09:36;;;;;;;1.80;1.67;;;1.70;99.90;;;;;;5062296;28;20210;-60
2021/04/27 02:12:03;;;;;;;1.08;1.08;;;1.70;99.90;;;;;;5064896;28;20207;-60
2021/04/27 02:14:30;;;;;;;1.08;1.08;;;1.80;99.90;;;;;;5057765;28;20204;-59
2021/04/27 02:17:16;;;;;;;0.70;0.70;;;1.90;99.70;;;;;;5057574;28;20208;-60
2021/04/27 02:19:45;;;;;;;0.82;0.82;;;1.90;99.70;;;;;;5063761;28;20204;-60
2021/04/27 02:22:12;;;;;;;3.33;3.03;;;1.90;99.90;;;;;;5067937;28;20202;-59
2021/04/27 02:24:39;;;;;;;6.07;3.15;;;2.30;99.90;;;;;;5069021;28;20238;-60
2021/04/27 02:27:10;;;;;;;1.73;1.52;;;1.90;99.90;;;;;;5055773;28;20215;-60
2021/04/27 02:29:37;;;;;;;2.05;1.38;;;1.70;99.90;;;;;;5057554;28;20213;-60
2021/04/27 02:32:04;;;;;;;1.52;1.50;;;1.70;99.90;;;;;;5064578;28;20208;-60
2021/04/27 02:34:31;;;;;;;2.35;2.25;;;1.80;99.90;;;;;;5058014;28;20232;-61
2021/04/27 02:36:58;;;;;;;1.60;1.50;;;1.80;99.90;;;;;;5066482;28;20458;-59
2021/04/27 02:39:25;;;;;;;2.28;2.20;;;1.80;99.90;;;;;;5057129;28;20275;-59
2021/04/27 02:41:51;;;;;;;2.70;1.63;;;1.80;99.90;;;;;;5053324;28;20212;-60
2021/04/27 02:44:18;;;;;;;2.00;1.23;;;1.80;99.90;;;;;;5057088;28;20243;-59
2021/04/27 02:46:46;;;;;;;0.80;0.80;;;1.80;99.90;;;;;;5054979;28;20215;-60
2021/04/27 02:49:13;;;;;;;0.85;0.85;;;1.70;99.90;;;;;;5054928;28;20222;-59
2021/04/27 02:51:40;;;;;;;1.85;1.75;;;1.50;99.90;;;;;;5056919;28;20450;-58
2021/04/27 02:54:07;;;;;;;2.67;1.65;;;1.50;99.90;;;;;;5053211;28;20223;-59
2021/04/27 02:56:35;;;;;;;0.77;0.77;;;1.40;99.90;;;;;;5059510;28;20573;-60
2021/04/27 02:59:03;;;;;;;1.20;1.20;;;1.40;99.90;;;;;;5048798;28;20204;-59
2021/04/27 03:01:30;;;;;;;0.50;0.50;;;1.60;99.90;;;;;;5056644;28;20203;-59
2021/04/27 03:03:57;;;;;;;1.38;1.23;;;1.50;99.90;;;;;;5060044;28;20231;-60
2021/04/27 03:06:23;;;;;;;2.47;2.05;;;1.40;99.90;;;;;;5052763;28;20215;-59
2021/04/27 03:08:50;;;;;;;3.10;1.75;;;1.40;99.90;;;;;;5052480;28;20214;-59
2021/04/27 03:11:17;;;;;;;0.50;0.50;;;1.40;99.90;;;;;;5063095;28;20227;-60
2021/04/27 03:13:44;;;;;;;1.40;1.40;;;1.60;99.90;;;;;;5050105;28;20231;-58
2021/04/27 03:16:10;;;;;;;0.60;0.60;;;1.40;99.90;;;;;;5054262;28;20218;-59
2021/04/27 03:18:37;;;;;;;4.13;2.45;;;1.50;99.90;;;;;;5056042;28;20206;-59
2021/04/27 03:21:04;;;;;;;2.00;1.90;;;1.50;99.90;;;;;;5049136;28;20299;-58
2021/04/27 03:23:31;;;;;;;0.63;0.63;;;1.50;99.90;;;;;;5050520;28;20563;-59
2021/04/27 03:25:58;;;;;;;1.30;1.30;;;1.50;99.90;;;;;;5049668;28;20270;-60
2021/04/27 03:28:25;;;;;;;1.80;1.70;;;1.50;99.90;;;;;;5056211;28;20230;-59
2021/04/27 03:30:52;;;;;;;2.42;2.28;;;1.50;99.90;;;;;;5056617;28;20211;-59
2021/04/27 03:33:18;;;;;;;6.30;4.82;;;1.50;99.90;;;;;;5057399;28;20203;-59
2021/04/27 03:35:45;;;;;;;0.80;0.80;;;1.30;99.90;;;;;;5056998;28;20207;-60
2021/04/27 03:38:13;;;;;;;0.75;0.75;;;1.10;99.90;;;;;;5056793;28;20372;-60
2021/04/27 03:40:40;;;;;;;2.35;2.08;;;1.20;99.90;;;;;;5056465;28;20569;-59
2021/04/27 03:43:08;;;;;;;0.98;0.98;;;1.20;99.90;;;;;;5047015;28;20222;-60
2021/04/27 03:45:35;;;;;;;1.50;1.40;;;1.20;99.90;;;;;;5049864;28;20246;-60
2021/04/27 03:48:14;;;;;;;3.17;1.55;;;1.10;99.90;;;;;;5037222;28;20212;-60
2021/04/27 03:50:42;;;;;;;1.95;1.85;;;1.20;99.90;;;;;;5050822;28;20199;-60
2021/04/27 03:53:09;;;;;;;2.72;1.73;;;1.10;99.90;;;;;;5051319;28;20212;-59
2021/04/27 03:55:36;;;;;;;1.67;1.33;;;1.30;99.90;;;;;;5039023;28;20239;-59
2021/04/27 03:58:04;;;;;;;2.17;2.08;;;1.30;99.90;;;;;;5056493;28;20210;-59
2021/04/27 04:00:31;;;;;;;3.60;3.20;;;1.30;99.90;;;;;;5060568;28;20210;-60
2021/04/27 04:02:58;;;;;;;0.93;0.93;;;1.20;99.90;;;;;;5053627;28;20208;-59
2021/04/27 04:05:25;;;;;;;2.55;2.42;;;1.30;99.90;;;;;;5046905;28;20207;-60
2021/04/27 04:07:51;;;;;;;2.22;2.13;;;1.30;99.90;;;;;;5059781;28;20233;-60
2021/04/27 04:10:18;;;;;;;3.53;1.73;;;1.60;99.90;;;;;;5059179;28;20214;-60
2021/04/27 04:12:44;;;;;;;1.48;1.05;;;1.50;99.90;;;;;;5058674;28;20218;-60
2021/04/27 04:15:16;;;;;;;2.28;2.17;;;1.40;99.90;;;;;;5061515;28;20216;-60
2021/04/27 04:17:43;;;;;;;0.75;0.75;;;1.60;99.90;;;;;;5060085;28;20211;-60
2021/04/27 04:20:14;;;;;;;1.00;1.00;;;1.70;99.90;;;;;;5057791;28;20213;-60
2021/04/27 04:22:47;;;;;;;4.85;2.30;;;1.90;99.90;;;;;;5059337;28;20207;-60
2021/04/27 04:25:14;;;;;;;2.28;1.88;;;2.10;99.90;;;;;;5062379;28;20253;-60
2021/04/27 04:27:41;;;;;;;3.58;2.78;;;2.30;99.90;;;;;;5058890;28;20215;-60
2021/04/27 04:30:15;;;;;;;2.25;2.05;;;2.30;99.90;;;;;;5062621;28;20208;-60
2021/04/27 04:32:42;;;;;;;3.10;2.85;;;2.50;99.90;;;;;;5055305;28;20393;-60
2021/04/27 04:35:10;;;;;;;1.75;1.65;;;3.00;99.90;;;;;;5060559;28;20212;-60
2021/04/27 04:37:38;;;;;;;4.70;4.28;;;3.00;99.60;;;;;;5060185;28;20514;-60
2021/04/27 04:40:07;;;;;;;6.50;3.88;;;3.10;99.30;;;;;;5051680;28;20201;-60
2021/04/27 04:42:33;;;;;;;2.90;2.20;;;3.40;99.00;;;;;;5051987;28;20213;-59
2021/04/27 04:45:00;;;;;;;2.42;2.33;;;3.60;97.80;;;;;;5070736;28;20248;-59
2021/04/27 04:47:27;;;;;;;17.23;3.42;;;3.60;97.80;;;;;;5053883;28;20207;-59
2021/04/27 04:49:53;;;;;;;1.40;1.40;;;3.70;96.70;;;;;;5059284;28;20210;-59
2021/04/27 04:52:20;;;;;;;3.33;3.03;;;3.70;96.60;;;;;;5053564;28;20270;-60
2021/04/27 04:54:47;;;;;;;2.13;1.92;;;3.80;96.50;;;;;;5047312;28;20218;-61
2021/04/27 04:57:13;;;;;;;6.28;4.65;;;3.70;96.30;;;;;;5050447;28;20453;-59
2021/04/27 04:59:40;;;;;;;1.40;1.30;;;3.70;96.20;;;;;;5047895;28;20229;-60
2021/04/27 05:02:06;;;;;;;2.15;1.95;;;3.90;96.10;;;;;;5054416;28;20210;-60
2021/04/27 05:04:33;;;;;;;2.38;2.28;;;4.10;95.80;;;;;;5060109;28;20256;-60
2021/04/27 05:07:05;;;;;;;11.02;2.38;;;4.20;95.50;;;;;;5059508;28;20219;-60
2021/04/27 05:09:32;;;;;;;6.55;1.77;;;4.50;95.20;;;;;;5056656;28;20412;-61
2021/04/27 05:12:00;;;;;;;1.80;1.73;;;4.70;94.60;;;;;;5056502;28;20224;-61
2021/04/27 05:14:27;;;;;;;1.25;1.25;;;4.70;94.50;;;;;;5069208;28;20265;-62
2021/04/27 05:16:54;;;;;;;2.15;1.58;;;4.90;94.00;;;;;;5063723;28;20261;-60
2021/04/27 05:19:21;;;;;;;7.82;2.90;;;5.00;93.80;;;;;;5071688;28;20238;-60
2021/04/27 05:21:47;;;;;;;2.05;1.35;;;5.00;93.10;;;;;;5059433;28;20386;-60
2021/04/27 05:24:14;;;;;;;3.65;3.35;;;5.10;93.00;;;;;;5065831;28;20502;-59
2021/04/27 05:26:41;;;;;;;1.45;1.45;;;5.10;93.40;;;;;;5029005;28;20287;-61
2021/04/27 05:29:09;;;;;;;2.05;1.95;;;5.20;93.00;;;;;;5041001;28;20207;-60
2021/04/27 05:31:36;;;;;;;2.78;2.63;;;5.20;92.90;;;;;;5047293;28;20218;-61
2021/04/27 05:34:10;;;;;;;5.00;2.17;;;5.40;92.70;;;;;;5045204;28;20350;-60
2021/04/27 05:36:37;;;;;;;2.35;1.67;;;5.50;92.00;;;;;;5040491;28;20234;-61
2021/04/27 05:39:04;;;;;;;1.83;1.80;;;5.40;92.30;;;;;;5056877;28;20212;-60
2021/04/27 05:41:35;;;;;;;1.13;1.02;;;5.80;92.00;;;;;;5055504;28;20385;-60
2021/04/27 05:44:03;;;;;;;2.30;2.20;;;6.30;90.70;;;;;;5054692;28;20290;-61
2021/04/27 05:46:36;;;;;;;6.47;2.53;;;6.30;90.60;;;;;;5040296;28;20205;-60
2021/04/27 05:49:04;;;;;;;1.92;1.83;;;6.50;89.00;;;;;;5046876;28;20199;-60
2021/04/27 05:51:30;;;;;;;1.60;1.50;;;6.60;89.10;;;;;;5044125;28;20568;-60
2021/04/27 05:53:57;;;;;;;1.40;1.40;;;6.80;89.90;;;;;;5048534;28;20230;-59
2021/04/27 05:56:24;;;;;;;1.48;1.48;;;7.10;85.60;;;;;;5047136;28;20211;-60
2021/04/27 05:58:52;;;;;;;2.10;2.10;;;7.40;84.80;;;;;;5048620;28;20426;-60
2021/04/27 06:01:22;;;;;;;2.75;2.63;;;7.80;81.80;;;;;;5047718;28;20207;-61
2021/04/27 06:03:49;;;;;;;3.40;3.20;;;8.00;80.90;;;;;;5045312;28;20227;-60
2021/04/27 06:06:15;;;;;;;2.83;2.72;;;8.30;78.90;;;;;;5042077;28;20209;-61
2021/04/27 06:08:42;;;;;;;2.30;2.30;;;8.60;77.50;;;;;;5040362;28;20232;-61
2021/04/27 06:11:09;;;;;;;3.55;3.45;;;8.90;75.20;;;;;;5047339;28;20206;-61
2021/04/27 06:13:36;;;;;;;3.05;2.95;;;9.00;72.50;;;;;;5043358;28;20220;-62
2021/04/27 06:16:04;;;;;;;3.50;3.38;;;9.30;72.60;;;;;;5041502;28;20207;-61
2021/04/27 06:18:31;;;;;;;5.10;4.80;;;10.10;70.30;;;;;;5044739;28;20255;-62
2021/04/27 06:20:58;;;;;;;3.90;3.70;;;11.00;64.40;;;;;;5048131;28;20205;-61
2021/04/27 06:23:26;;;;;;;5.60;5.30;;;11.50;62.60;;;;;;5043560;28;20214;-62
2021/04/27 06:25:53;;;;;;;3.60;3.50;;;12.50;57.50;;;;;;5054428;28;20213;-64
2021/04/27 06:28:20;;;;;;;5.82;5.47;;;14.10;52.60;;;;;;5068424;28;20494;-61
2021/04/27 06:30:47;;;;;;;5.03;4.82;;;14.70;50.30;;;;;;5059345;28;20243;-60
2021/04/27 06:33:14;;;;;;;4.22;4.13;;;14.20;48.70;;;;;;5057472;28;20258;-62
2021/04/27 06:35:42;;;;;;;4.60;4.40;;;14.30;49.30;;;;;;5056882;28;20207;-61
2021/04/27 06:38:16;;;;;;;5.35;5.05;;;15.10;48.40;;;;;;5057357;28;20427;-62
2021/04/27 06:40:51;;;;;;;4.70;4.50;;;16.40;44.90;;;;;;5060898;28;20210;-62
2021/04/27 06:43:19;;;;;;;6.17;5.67;;;17.60;43.40;;;;;;5065595;28;20514;-62
2021/04/27 06:45:46;;;;;;;5.17;4.77;;;18.60;40.10;;;;;;5067153;28;20666;-61
2021/04/27 06:48:13;;;;;;;4.63;4.50;;;18.70;39.10;;;;;;5054210;28;20658;-63
2021/04/27 06:50:42;;;;;;;5.30;5.00;;;19.00;38.70;;;;;;5055935;28;20613;-60
2021/04/27 06:53:10;;;;;;;5.57;5.37;;;19.80;37.10;;;;;;5056926;28;20490;-61
2021/04/27 06:55:37;;;;;;;5.83;5.37;;;20.40;36.00;;;;;;5055148;28;20421;-62
2021/04/27 06:58:08;;;;;;;4.70;4.40;;;20.80;34.80;;;;;;5058794;28;20446;-61
2021/04/27 07:00:37;;;;;;;4.30;4.20;;;20.60;34.10;;;;;;5056721;28;20454;-61
2021/04/27 07:03:05;;;;;;;4.60;4.30;;;20.70;32.90;;;;;;5052820;28;20419;-64
2021/04/27 07:05:32;;;;;;;4.67;4.50;;;20.30;33.60;;;;;;5055688;28;20500;-62
2021/04/27 07:07:58;;;;;;;5.40;5.10;;;18.60;36.20;;;;;;5056891;28;20432;-63
2021/04/27 07:10:26;;;;;;;4.43;4.13;;;19.80;34.20;;;;;;5057334;28;20427;-63
2021/04/27 07:12:53;;;;;;;5.30;5.10;;;20.40;34.10;;;;;;5051914;28;20404;-63
2021/04/27 07:15:20;;;;;;;5.07;4.87;;;20.50;33.00;;;;;;5055031;28;20784;-66
2021/04/27 07:17:47;;;;;;;4.00;3.90;;;20.50;32.70;;;;;;5058139;28;20654;-64
2021/04/27 07:20:15;;;;;;;4.70;4.50;;;20.50;33.00;;;;;;5038449;28;20486;-63
2021/04/27 07:22:42;;;;;;;4.90;4.70;;;20.80;32.90;;;;;;5040134;28;20427;-61
2021/04/27 07:25:13;;;;;;;4.50;4.30;;;21.70;31.50;;;;;;5042565;28;20844;-63
2021/04/27 07:27:41;;;;;;;4.00;3.90;;;22.90;30.00;;;;;;5042272;28;20430;-61
2021/04/27 07:30:11;;;;;;;7.27;5.20;;;22.20;29.70;;;;;;5045499;28;20425;-63
2021/04/27 07:32:38;;;;;;;4.70;4.50;;;22.30;30.20;;;;;;5048571;28;20865;-63
2021/04/27 07:35:07;;;;;;;4.60;4.40;;;21.00;32.10;;;;;;5054763;28;20791;-64
2021/04/27 07:37:36;;;;;;;5.37;5.07;;;21.70;31.10;;;;;;5051932;28;20452;-64
2021/04/27 07:40:06;;;;;;;6.23;5.83;;;23.70;29.60;;;;;;5055583;28;20542;-63
2021/04/27 07:42:34;;;;;;;5.00;4.80;;;23.70;28.80;;;;;;5056152;28;20415;-63
2021/04/27 07:45:04;;;;;;;4.77;4.60;;;23.80;28.10;;;;;;5056493;28;20496;-62
2021/04/27 07:47:31;;;;;;;5.30;5.10;;;23.10;28.90;;;;;;5054755;28;20502;-63
2021/04/27 07:49:58;;;;;;;5.23;5.03;;;22.60;29.90;;;;;;5070373;28;20775;-63
2021/04/27 07:52:28;;;;;;;3.93;3.83;;;20.30;30.50;;;;;;5059237;28;20509;-64
2021/04/27 07:54:55;;;;;;;5.20;4.93;;;18.10;35.40;;;;;;5068080;28;20423;-64
2021/04/27 07:57:21;;;;;;;5.03;4.80;;;17.50;35.90;;;;;;5070246;28;20425;-61
2021/04/27 07:59:48;;;;;;;4.97;4.77;;;17.80;35.90;;;;;;5061033;28;20465;-63
2021/04/27 08:02:15;;;;;;;3.97;3.87;;;17.60;35.10;;;;;;5060501;28;20429;-63
2021/04/27 08:04:49;;;;;;;3.83;3.73;;;17.50;34.60;;;;;;5060634;28;20863;-62
2021/04/27 08:07:19;;;;;;;3.60;3.50;;;15.70;35.60;;;;;;5062806;28;20452;-63
2021/04/27 08:09:45;;;;;;;3.90;3.80;;;16.20;35.80;;;;;;5059377;28;20553;-63
2021/04/27 08:12:14;;;;;;;4.10;3.90;;;14.90;37.80;;;;;;5066324;28;20445;-63
2021/04/27 08:14:41;;;;;;;3.80;3.70;;;15.40;36.90;;;;;;5052654;28;20214;-62
2021/04/27 08:17:08;;;;;;;4.13;4.03;;;16.40;34.70;;;;;;5053208;28;20484;-62
2021/04/27 08:19:36;;;;;;;4.20;4.00;;;16.80;34.20;;;;;;5060067;28;20412;-61
2021/04/27 08:22:05;;;;;;;4.23;4.13;;;18.50;32.10;;;;;;5051959;28;20448;-62
2021/04/27 08:24:34;;;;;;;4.17;4.07;;;18.80;32.10;;;;;;5052613;28;20660;-62
2021/04/27 08:27:09;;;;;;;4.17;4.07;;;19.40;31.30;;;;;;5052147;28;20417;-62
2021/04/27 08:29:36;;;;;;;4.20;4.10;;;19.20;29.90;;;;;;5050859;28;20453;-62
2021/04/27 08:32:06;;;;;;;4.00;3.90;;;17.90;32.10;;;;;;5061259;28;20483;-64
2021/04/27 08:34:36;;;;;;;4.13;3.93;;;15.50;35.10;;;;;;5057453;28;20752;-63
2021/04/27 08:37:04;;;;;;;4.37;4.27;;;15.70;36.50;;;;;;5061764;28;20545;-63
2021/04/27 08:39:33;;;;;;;4.00;3.90;;;17.40;35.00;;;;;;5058992;28;20426;-63
2021/04/27 08:42:01;;;;;;;4.00;3.90;;;18.30;32.80;;;;;;5057408;28;20813;-62
2021/04/27 08:44:30;;;;;;;4.10;4.00;;;17.30;33.10;;;;;;5058823;28;20996;-63
2021/04/27 08:46:57;;;;;;;3.83;3.73;;;17.70;33.10;;;;;;5070551;28;20652;-63
2021/04/27 08:49:24;;;;;;;3.60;3.50;;;17.10;32.60;;;;;;5071902;28;20443;-63
2021/04/27 08:51:52;;;;;;;3.50;3.40;;;17.90;32.60;;;;;;5058758;28;20521;-62
2021/04/27 08:54:30;;;;;;;3.87;3.77;;;16.80;34.10;;;;;;5043680;28;20603;-62
2021/04/27 08:56:57;;;;;;;4.17;3.80;;;17.00;34.20;;;;;;5043701;28;20436;-63
2021/04/27 08:59:24;;;;;;;4.03;3.93;;;16.90;33.30;;;;;;5051351;28;20443;-63
2021/04/27 09:01:51;;;;;;;4.13;3.93;;;16.40;34.40;;;;;;5044031;28;20766;-62
2021/04/27 09:04:40;;;;;;;3.73;3.63;;;16.20;34.30;;;;;;5047132;28;20465;-62
2021/04/27 09:07:10;;;;;;;3.60;3.50;;;14.20;38.40;;;;;;5053627;28;20443;-63
2021/04/27 09:09:45;;;;;;;3.50;3.40;;;14.90;37.10;;;;;;5042150;28;20463;-63
2021/04/27 09:12:13;;;;;;;3.60;3.50;;;16.00;36.00;;;;;;5044311;28;20477;-62
2021/04/27 09:14:41;;;;;;;3.40;3.30;;;15.40;37.10;;;;;;5045634;28;20275;-63
2021/04/27 09:17:11;;;;;;;4.03;3.92;;;14.70;37.60;;;;;;5050139;28;20208;-61
2021/04/27 09:19:41;;;;;;;3.60;3.50;;;13.00;39.90;;;;;;5052711;28;20218;-62
2021/04/27 09:22:17;;;;;;;3.50;3.40;;;12.20;41.40;;;;;;5048946;28;20246;-62
2021/04/27 09:24:49;;;;;;;3.60;3.40;;;11.20;42.20;;;;;;5059961;28;20231;-62
2021/04/27 09:27:32;;;;;;;5.55;5.07;;;11.50;43.10;;;;;;5062234;28;20196;-62
2021/04/27 09:30:14;;;;;;;3.20;3.10;;;11.40;43.10;;;;;;5053211;28;20275;-63
2021/04/27 09:33:09;;;;;;;3.47;3.38;;;11.20;43.50;;;;;;5049538;28;20208;-63
2021/04/27 09:35:41;;;;;;;3.15;3.05;;;11.40;43.70;;;;;;5054935;28;20575;-62
2021/04/27 09:38:18;;;;;;;3.65;3.55;;;11.40;43.70;;;;;;5049336;28;20658;-62
2021/04/27 09:40:54;;;;;;;3.55;3.25;;;10.90;43.90;;;;;;5050271;28;20207;-62
2021/04/27 09:43:31;;;;;;;2.95;2.90;;;11.00;44.20;;;;;;5062612;28;20213;-62
2021/04/27 09:46:01;;;;;;;3.50;3.30;;;10.90;44.60;;;;;;5050070;28;20266;-61
2021/04/27 09:48:39;;;;;;;3.00;2.90;;;10.90;44.40;;;;;;5050001;28;20214;-61
2021/04/27 09:51:32;;;;;;;3.37;3.27;;;11.00;43.70;;;;;;5014084;28;1106718;-64
2021/04/27 09:54:18;;;;;;;3.30;3.20;;;11.20;44.20;;;;;;5048659;28;20369;-62
2021/04/27 09:56:50;;;;;;;3.55;3.45;;;10.80;44.60;;;;;;5058827;28;20210;-61
2021/04/27 09:59:28;;;;;;;3.30;3.20;;;10.70;44.90;;;;;;5060630;28;20199;-61
2021/04/27 10:01:57;;;;;;;3.50;3.40;;;10.70;44.90;;;;;;5040791;28;20208;-62
2021/04/27 10:04:28;;;;;;;3.85;3.75;;;10.50;45.10;;;;;;5050772;28;20234;-62
2021/04/27 10:07:01;;;;;;;3.78;3.47;;;10.50;45.20;;;;;;5056644;28;20217;-63
2021/04/27 10:09:29;;;;;;;3.40;3.30;;;10.40;44.90;;;;;;5054262;28;20207;-62
2021/04/27 10:11:57;;;;;;;3.20;3.10;;;10.60;44.90;;;;;;5059266;28;20277;-61
2021/04/27 10:14:25;;;;;;;3.00;2.90;;;10.50;46.20;;;;;;5069347;28;20278;-61
2021/04/27 10:16:51;;;;;;;3.35;3.25;;;10.20;45.40;;;;;;5047947;28;20218;-61
2021/04/27 10:19:18;;;;;;;3.10;3.00;;;10.10;45.80;;;;;;5040664;28;20213;-62
2021/04/27 10:21:48;;;;;;;3.30;3.20;;;10.20;46.50;;;;;;5040315;28;20219;-61
2021/04/27 10:24:23;;;;;;;3.30;3.20;;;10.30;46.00;;;;;;5040061;28;20261;-61
2021/04/27 10:26:50;;;;;;;3.50;3.40;;;10.50;45.90;;;;;;5044527;28;20208;-61
2021/04/27 10:29:24;;;;;;;3.78;3.67;;;10.50;45.30;;;;;;5047371;28;20275;-62
2021/04/27 10:32:20;;;;;;;3.75;3.65;;;10.70;44.80;;;;;;5043601;28;20529;-61
2021/04/27 10:34:57;;;;;;;3.78;3.67;;;10.80;45.00;;;;;;5034896;28;20455;-62
2021/04/27 10:37:28;;;;;;;3.33;3.22;;;10.70;44.20;;;;;;5061912;28;20197;-60
2021/04/27 10:39:55;;;;;;;3.95;3.85;;;10.60;45.10;;;;;;5051707;28;20211;-62
2021/04/27 10:42:30;;;;;;;3.53;3.42;;;10.50;44.10;;;;;;5053512;28;20527;-62
2021/04/27 10:45:08;;;;;;;3.80;3.70;;;10.50;44.50;;;;;;5045335;28;20771;-61
2021/04/27 10:47:46;;;;;;;3.60;3.50;;;10.60;44.70;;;;;;5048658;28;20726;-61
2021/04/27 10:50:28;;;;;;;3.88;3.78;;;10.80;44.60;;;;;;5049605;28;20492;-60
2021/04/27 10:53:15;;;;;;;3.50;3.40;;;11.10;44.50;;;;;;5042017;28;20270;-62
2021/04/27 10:55:52;;;;;;;3.40;3.30;;;11.30;41.90;;;;;;5041272;28;20220;-61
2021/04/27 10:58:46;;;;;;;3.55;3.45;;;11.10;42.70;;;;;;5042109;28;20510;-60
2021/04/27 11:01:29;;;;;;;3.38;3.28;;;10.90;42.30;;;;;;5042418;28;20210;-61
2021/04/27 11:04:01;;;;;;;3.80;3.70;;;10.60;43.20;;;;;;5040357;28;20307;-63
2021/04/27 11:06:28;;;;;;;3.50;3.40;;;10.70;44.00;;;;;;5047296;28;20211;-62
2021/04/27 11:08:58;;;;;;;3.72;3.63;;;11.00;42.90;;;;;;5042937;28;20275;-61
2021/04/27 11:11:31;;;;;;;3.80;3.70;;;10.90;42.10;;;;;;5051048;28;20218;-61
2021/04/27 11:14:20;;;;;;;3.22;3.13;;;10.90;42.90;;;;;;5048912;28;20494;-63
2021/04/27 11:16:59;;;;;;;3.97;3.88;;;10.60;43.20;;;;;;5055206;28;20207;-62
2021/04/27 11:19:30;;;;;;;3.63;3.53;;;10.60;43.60;;;;;;5047987;28;20429;-62
2021/04/27 11:22:19;;;;;;;3.80;3.35;;;10.60;43.90;;;;;;5043732;28;20679;-60
2021/04/27 11:24:48;;;;;;;3.10;2.90;;;11.20;43.00;;;;;;5059241;28;20254;-61
2021/04/27 11:27:33;;;;;;;3.20;3.10;;;10.80;43.60;;;;;;5048185;28;20242;-64
2021/04/27 11:30:07;;;;;;;2.85;2.83;;;10.70;42.10;;;;;;5064613;28;20209;-61
2021/04/27 11:32:38;;;;;;;2.92;2.88;;;10.70;42.10;;;;;;5062740;28;20203;-61
2021/04/27 11:35:17;;;;;;;3.10;3.00;;;11.00;42.40;;;;;;5056967;28;20291;-61
2021/04/27 11:37:48;;;;;;;3.25;3.13;;;11.10;41.90;;;;;;5053690;28;20208;-60
2021/04/27 11:40:39;;;;;;;3.20;3.10;;;10.90;42.90;;;;;;5053294;28;20274;-62
2021/04/27 11:43:12;;;;;;;3.50;3.40;;;11.00;43.70;;;;;;5056796;28;20298;-62
2021/04/27 11:45:45;;;;;;;3.28;3.17;;;10.70;43.40;;;;;;5051182;28;20230;-63
2021/04/27 11:48:15;;;;;;;3.10;3.00;;;10.30;44.40;;;;;;5056106;28;20210;-61
2021/04/27 11:50:43;;;;;;;3.33;3.22;;;10.50;44.40;;;;;;5061608;28;20202;-61
2021/04/27 11:53:11;;;;;;;3.10;3.00;;;10.70;44.80;;;;;;5053367;28;20245;-60
2021/04/27 11:55:50;;;;;;;3.20;3.10;;;10.80;43.80;;;;;;5050914;28;20421;-61
2021/04/27 11:58:28;;;;;;;3.10;3.00;;;10.80;42.60;;;;;;5054708;28;20217;-61
2021/04/27 12:00:58;;;;;;;3.00;3.00;;;10.70;42.30;;;;;;5046140;28;20536;-61
2021/04/27 12:03:31;;;;;;;3.33;3.22;;;11.10;41.80;;;;;;5048763;28;20252;-60
2021/04/27 12:06:05;;;;;;;3.20;3.10;;;11.10;41.80;;;;;;5056772;28;20284;-62
2021/04/27 12:08:37;;;;;;;3.15;3.05;;;10.90;41.30;;;;;;5051593;28;20218;-61
2021/04/27 12:11:23;;;;;;;3.33;3.13;;;10.90;42.60;;;;;;5067634;28;20206;-62
2021/04/27 12:13:53;;;;;;;3.00;2.92;;;10.90;42.60;;;;;;5048290;28;20217;-62
2021/04/27 12:16:22;;;;;;;3.20;3.10;;;10.70;43.00;;;;;;5047014;28;20207;-62
2021/04/27 12:18:53;;;;;;;3.10;3.00;;;10.80;43.40;;;;;;5047449;28;20274;-63
2021/04/27 12:21:30;;;;;;;3.58;3.47;;;10.60;43.30;;;;;;5057379;28;20544;-61
2021/04/27 12:24:18;;;;;;;3.10;3.00;;;10.60;43.60;;;;;;5041456;28;20246;-60
2021/04/27 12:26:53;;;;;;;3.28;3.17;;;10.70;43.70;;;;;;5037304;28;20222;-61
2021/04/27 12:29:33;;;;;;;3.50;3.40;;;10.90;42.70;;;;;;5049337;28;20310;-62
2021/04/27 12:32:15;;;;;;;3.20;3.10;;;10.90;42.60;;;;;;5058039;28;20501;-62
2021/04/27 12:35:06;;;;;;;3.38;3.28;;;10.90;42.10;;;;;;5044653;28;20215;-62
2021/04/27 12:37:35;;;;;;;3.25;3.15;;;10.80;41.80;;;;;;5054202;28;20226;-62
2021/04/27 12:40:24;;;;;;;3.78;3.67;;;10.60;42.70;;;;;;5059205;28;20215;-62
2021/04/27 12:42:55;;;;;;;3.10;3.00;;;10.90;42.90;;;;;;5047530;28;20230;-62
2021/04/27 12:45:22;;;;;;;3.10;3.00;;;10.90;42.40;;;;;;5058505;28;20472;-61
2021/04/27 12:48:03;;;;;;;3.50;3.40;;;11.00;42.10;;;;;;5056692;28;20270;-61
2021/04/27 12:50:32;;;;;;;2.70;2.70;;;11.00;42.60;;;;;;5058661;28;20217;-61
2021/04/27 12:53:03;;;;;;;3.10;3.00;;;10.90;42.70;;;;;;5066763;28;20835;-61
2021/04/27 12:55:32;;;;;;;3.30;3.20;;;10.90;43.30;;;;;;5051155;28;20493;-62
2021/04/27 12:58:13;;;;;;;2.95;2.90;;;11.10;42.20;;;;;;5035278;28;20515;-62
2021/04/27 13:00:53;;;;;;;3.05;3.00;;;11.20;42.10;;;;;;5051050;28;20274;-60
2021/04/27 13:03:22;;;;;;;3.33;3.22;;;11.20;41.50;;;;;;5041025;28;20222;-61
2021/04/27 13:05:51;;;;;;;4.55;4.35;;;11.20;42.30;;;;;;5044873;28;20228;-63